Briefing drone pour Selles-sur-cher

Rechercher une autre localisation

Conditions de vol :


Nous sommes le : Lundi 06 décembre 2021
Il est 18:07 UTC (19:07 LT)

Lever de soleil : 06:59 UTC (07:59 LT)
Coucher de soleil : 16:30 UTC (17:30 LT)

Météo

L'essentiel des conditions de vol

VIGILANCE MÉTÉO FRANCE - Loir-et-Cher (41)
Pas de vigilances particulieres
METAR de LFYR
LFYR 061800Z AUTO 21005KT 180V250 4200 -RA BR BKN006/// OVC010/// ///TCU 06/06 Q1012

Date d'émission: 06/12/2021
Heure d'émission: 18:00 UTC
Vent: 210° (variable du 180° au 250°) pour 5 KT (9 km/h)
Visibilité horizontale: 4200 m
Plafond :
- Nuages morcelés à 600ft (183m)
- Couvert à 1000ft (305m)
Température: 6 °C
Point de rosée: 6 °C
Humidité: 100%
Pression (QNH): 1012 hPa
Conditions: Faible pluie
TAF de LFYR
AMD LFYR 061602Z 0616/0715 CNL

Conditions prévues :

Heure d'émission : Bulletin éffectué le 06 à 16:00 UTC
Prévision : Valide du 06 a 16:00 UTC au 07 a 15:00 UTC
Nuages : à 0ft (0 m)
WEBCAM POUR SELLES-SUR-CHER

Réglementation

Voler en sécurité

CARTES AERONAUTIQUE 1/500.000
CARTES VAC (LFYR)
SUP AIP




Chargement des AIP...
NOTAM (SELLES-SUR-CHER + Terrain à proximité / FIR )




Chargement des NOTAMS...
CONTACT PREFECTURE 41
Loir-et-Cher (41) : pref-bpas@loir-et-cher.gouv.fr


Avertissement : Les données mises à disposition sont indicatives. Oxygène Drone ne pourra être tenu responsable de dégâts causés aux biens et aux personnes.